Time;durP1;ratioP1;P1;durP2;ratioP2;P2;SDS_P1;SDS_P2;PMS_P1;PMS_P2;Temp;Humidity;BMP_temperature;BMP_pressure;BME280_temperature;BME280_humidity;BME280_pressure;Samples;Min_cycle;Max_cycle;Signal;HPM_P1;HPM_P2
2021/08/28 00:02:13;;;;;;;3.60;3.30;;;;;;;23.49;60.35;99767.81;4958924;28;20054;-73
2021/08/28 00:04:39;;;;;;;4.22;3.42;;;;;;;23.50;60.49;99773.00;4958404;28;20027;-72
2021/08/28 00:07:04;;;;;;;3.53;2.97;;;;;;;23.52;60.58;99761.97;4958315;28;20030;-72
2021/08/28 00:09:30;;;;;;;4.03;3.17;;;;;;;23.52;60.82;99761.97;4958252;28;20034;-74
2021/08/28 00:11:55;;;;;;;5.15;3.13;;;;;;;23.53;60.66;99762.75;4958216;28;20037;-72
2021/08/28 00:14:21;;;;;;;3.47;2.97;;;;;;;23.61;60.75;99757.63;4958538;28;20042;-73
2021/08/28 00:16:47;;;;;;;3.03;2.60;;;;;;;23.52;61.02;99759.13;4958150;28;20462;-72
2021/08/28 00:19:12;;;;;;;3.95;3.15;;;;;;;23.48;60.96;99758.47;4958061;28;20085;-72
2021/08/28 00:21:38;;;;;;;3.15;2.80;;;;;;;23.47;61.04;99756.88;4958257;28;20038;-73
2021/08/28 00:24:04;;;;;;;3.95;3.03;;;;;;;23.57;60.94;99752.06;4958017;28;20389;-74
2021/08/28 00:26:32;;;;;;;2.47;2.30;;;;;;;23.53;61.32;99751.41;4958034;28;20034;-73
2021/08/28 00:28:57;;;;;;;3.40;3.10;;;;;;;23.56;61.31;99746.88;4958256;28;20031;-73
2021/08/28 00:31:23;;;;;;;5.10;2.88;;;;;;;23.56;61.55;99749.69;4958443;28;20026;-73
2021/08/28 00:33:48;;;;;;;2.90;2.35;;;;;;;23.52;61.81;99755.50;4958221;28;20129;-72
2021/08/28 00:36:14;;;;;;;3.08;2.78;;;;;;;23.47;61.31;99754.03;4957865;28;20509;-73
2021/08/28 00:38:39;;;;;;;2.45;2.25;;;;;;;23.47;60.97;99745.53;4957826;28;20034;-73
2021/08/28 00:41:05;;;;;;;3.45;2.42;;;;;;;23.49;60.96;99745.09;4958260;28;20043;-73
2021/08/28 00:43:31;;;;;;;3.58;2.42;;;;;;;23.56;60.79;99738.34;4957762;28;20038;-73
2021/08/28 00:45:58;;;;;;;3.10;2.42;;;;;;;23.47;61.09;99737.00;4957759;28;20038;-74
2021/08/28 00:48:24;;;;;;;2.58;2.20;;;;;;;23.61;60.72;99749.09;4958261;28;20430;-73
2021/08/28 00:50:52;;;;;;;3.47;2.67;;;;;;;23.59;61.01;99741.03;4941936;28;20023;-73
2021/08/28 00:53:18;;;;;;;2.90;2.67;;;;;;;23.51;61.27;99725.53;4975270;28;20030;-73
2021/08/28 00:55:46;;;;;;;3.03;2.72;;;;;;;23.50;61.20;99735.31;4957913;28;20031;-73
2021/08/28 00:58:14;;;;;;;2.35;2.20;;;;;;;23.44;61.16;99740.00;4957532;28;20023;-74
2021/08/28 01:00:48;;;;;;;4.07;2.63;;;;;;;23.52;61.06;99741.31;4957947;28;20030;-73
2021/08/28 01:03:20;;;;;;;3.28;2.97;;;;;;;23.49;61.60;99745.09;4975142;28;20373;-72
2021/08/28 01:06:11;;;;;;;2.67;2.47;;;;;;;23.49;61.73;99748.72;4957726;28;20500;-74
2021/08/28 01:08:48;;;;;;;3.45;3.00;;;;;;;23.42;62.13;99746.13;4957428;28;20058;-74
2021/08/28 01:11:14;;;;;;;3.03;2.78;;;;;;;23.40;61.89;99728.78;4958110;28;20482;-73
2021/08/28 01:13:42;;;;;;;4.28;2.97;;;;;;;23.49;61.67;99743.03;4957464;28;20089;-73
2021/08/28 01:16:10;;;;;;;3.40;2.75;;;;;;;23.47;61.90;99741.91;4957415;28;20030;-72
2021/08/28 01:18:39;;;;;;;3.22;2.88;;;;;;;23.52;61.86;99753.44;4957102;28;20050;-72
2021/08/28 01:21:26;;;;;;;5.57;3.28;;;;;;;23.43;62.31;99746.91;4957795;28;20027;-73
2021/08/28 01:23:53;;;;;;;2.90;2.70;;;;;;;23.39;62.22;99735.72;4957864;28;20035;-73
2021/08/28 01:26:22;;;;;;;5.10;2.50;;;;;;;23.35;62.26;99729.34;4957487;28;20444;-72
2021/08/28 01:28:55;;;;;;;2.70;2.50;;;;;;;23.29;62.34;99725.53;4957505;28;20030;-72
2021/08/28 01:31:22;;;;;;;3.22;2.92;;;;;;;23.36;62.29;99725.25;4957582;28;20542;-73
2021/08/28 01:33:50;;;;;;;2.67;2.47;;;;;;;23.41;62.07;99715.38;4941497;28;20035;-72
2021/08/28 01:36:17;;;;;;;2.92;2.55;;;;;;;23.32;62.77;99718.91;4974535;28;20413;-74
2021/08/28 01:38:43;;;;;;;2.53;2.33;;;;;;;23.32;62.73;99735.16;4957213;28;20042;-73
2021/08/28 01:41:10;;;;;;;2.42;2.22;;;;;;;23.33;62.67;99731.88;4957038;28;20054;-73
2021/08/28 01:43:36;;;;;;;2.75;2.45;;;;;;;;;;4957408;28;20043;-72
2021/08/28 01:46:03;;;;;;;2.75;2.50;;;;;;;23.34;62.75;99716.44;4957687;28;20545;-72
2021/08/28 01:48:29;;;;;;;2.35;2.20;;;;;;;23.38;62.65;99694.34;4974169;28;20035;-72
2021/08/28 01:50:58;;;;;;;2.92;2.55;;;;;;;23.32;62.86;99693.38;4957615;28;20042;-72
2021/08/28 01:53:26;;;;;;;2.35;2.15;;;;;;;23.38;62.75;99682.22;4957544;28;20543;-73
2021/08/28 01:55:51;;;;;;;3.78;3.47;;;;;;;23.32;63.11;99673.50;4960761;28;20037;-73
2021/08/28 01:58:17;;;;;;;2.60;2.40;;;;;;;23.34;62.92;99665.34;4960690;28;20031;-73
2021/08/28 02:00:42;;;;;;;2.92;2.38;;;;;;;23.49;62.72;99666.38;4960513;28;20034;-74
2021/08/28 02:03:08;;;;;;;2.83;2.38;;;;;;;23.23;64.21;99673.47;4960644;28;20039;-73
2021/08/28 02:05:40;;;;;;;2.53;2.30;;;;;;;23.20;63.77;99665.84;4960868;28;20125;-73
2021/08/28 02:08:11;;;;;;;2.80;2.60;;;;;;;23.23;64.34;99681.97;4960759;28;20113;-74
2021/08/28 02:10:51;;;;;;;2.70;2.50;;;;;;;23.15;64.69;99653.06;4977853;28;20026;-72
2021/08/28 02:13:34;;;;;;;2.50;2.30;;;;;;;23.14;64.81;99628.78;4960679;28;20125;-72
2021/08/28 02:16:10;;;;;;;4.70;3.38;;;;;;;23.13;64.81;99637.75;4960009;28;20589;-73
2021/08/28 02:18:47;;;;;;;3.35;3.05;;;;;;;23.20;64.85;99643.16;4960160;28;20109;-73
2021/08/28 02:21:15;;;;;;;9.07;8.20;;;;;;;23.15;64.97;99632.41;4960209;28;20030;-73
2021/08/28 02:24:06;;;;;;;6.75;5.43;;;;;;;23.28;64.73;99641.66;4960513;28;20035;-72
2021/08/28 02:26:39;;;;;;;6.68;6.15;;;;;;;23.19;65.42;99676.41;4951050;28;20039;-72
2021/08/28 02:29:11;;;;;;;8.05;7.43;;;;;;;23.14;65.75;99694.03;4960937;28;20066;-72
2021/08/28 02:31:42;;;;;;;6.93;6.32;;;;;;;23.17;65.58;99663.94;4960648;28;20030;-73
2021/08/28 02:34:09;;;;;;;5.18;4.75;;;;;;;23.26;64.80;99641.31;4960127;28;20050;-72
2021/08/28 02:36:35;;;;;;;5.20;4.65;;;;;;;23.25;65.21;99642.56;4959778;28;20065;-73
2021/08/28 02:39:02;;;;;;;3.60;3.30;;;;;;;23.26;65.36;99646.97;4959993;28;20031;-73
2021/08/28 02:41:29;;;;;;;10.75;9.57;;;;;;;23.32;65.39;99662.16;4960670;28;20023;-72
2021/08/28 02:44:00;;;;;;;9.73;8.88;;;;;;;23.30;65.80;99663.88;4959897;28;20046;-73
2021/08/28 02:46:30;;;;;;;5.70;4.47;;;;;;;23.34;66.05;99664.53;4960345;28;20418;-74
2021/08/28 02:48:58;;;;;;;3.80;3.50;;;;;;;23.42;66.38;99652.44;4960124;28;20379;-74
2021/08/28 02:51:29;;;;;;;4.38;3.40;;;;;;;23.30;68.13;99655.38;4959720;28;20033;-74
2021/08/28 02:53:55;;;;;;;4.53;3.97;;;;;;;23.42;68.98;99672.31;4959966;28;20053;-74
2021/08/28 02:56:23;;;;;;;3.17;2.85;;;;;;;23.24;69.28;99655.97;4959653;28;20093;-74
2021/08/28 02:58:50;;;;;;;6.40;3.88;;;;;;;23.06;70.43;99666.38;4960086;28;20042;-75
2021/08/28 03:01:16;;;;;;;5.85;4.80;;;;;;;22.99;71.32;99684.44;4960109;28;20402;-76
2021/08/28 03:03:43;;;;;;;3.85;3.55;;;;;;;22.93;72.13;99706.94;4959571;28;20037;-76
2021/08/28 03:06:10;;;;;;;5.70;3.80;;;;;;;22.84;72.90;99689.81;4958329;28;20038;-76
2021/08/28 03:08:39;;;;;;;4.45;3.63;;;;;;;22.83;73.15;99678.91;4943727;28;20517;-77
2021/08/28 03:11:05;;;;;;;3.15;2.80;;;;;;;22.88;71.23;99690.50;4976789;28;20035;-76
2021/08/28 03:13:34;;;;;;;3.47;2.50;;;;;;;22.86;70.66;99693.00;4960032;28;20425;-72
2021/08/28 03:16:02;;;;;;;3.67;2.80;;;;;;;22.55;72.38;99680.72;4959267;28;20026;-74
2021/08/28 03:18:29;;;;;;;2.67;2.42;;;;;;;22.42;72.84;99677.88;4958991;28;20051;-74
2021/08/28 03:20:57;;;;;;;3.35;2.42;;;;;;;22.53;72.56;99686.03;4959960;28;20031;-81
2021/08/28 03:23:28;;;;;;;5.32;3.78;;;;;;;22.29;74.12;99655.25;4959719;28;20050;-79
2021/08/28 03:25:54;;;;;;;4.25;3.30;;;;;;;22.40;74.78;99684.03;4959245;28;20033;-79
2021/08/28 03:28:20;;;;;;;3.95;3.60;;;;;;;22.39;75.79;99671.09;4959297;28;20058;-83
2021/08/28 03:30:48;;;;;;;3.83;3.28;;;;;;;22.40;75.83;99672.69;4959732;28;20031;-78
2021/08/28 03:33:16;;;;;;;3.50;3.20;;;;;;;22.49;75.40;99672.78;4959408;28;20470;-77
2021/08/28 03:35:44;;;;;;;4.45;3.75;;;;;;;22.57;76.03;99670.47;4959039;28;20019;-78
2021/08/28 03:38:10;;;;;;;3.55;3.05;;;;;;;22.57;75.44;99658.34;4959217;28;20034;-75
2021/08/28 03:40:38;;;;;;;3.22;2.92;;;;;;;22.48;74.83;99650.56;4958833;28;20497;-74
2021/08/28 03:43:08;;;;;;;3.15;2.90;;;;;;;22.39;73.62;99659.75;4959320;28;20045;-75
2021/08/28 03:45:33;;;;;;;2.40;2.20;;;;;;;22.40;72.94;99661.34;4959278;28;20374;-74
2021/08/28 03:48:03;;;;;;;4.65;2.75;;;;;;;22.45;73.82;99645.81;4958656;28;20038;-76
2021/08/28 03:50:29;;;;;;;5.22;4.00;;;;;;;22.53;72.47;99660.50;4958914;28;20027;-75
2021/08/28 03:52:55;;;;;;;5.35;3.80;;;;;;;22.55;72.69;99680.72;4958652;28;20548;-74
2021/08/28 03:55:20;;;;;;;5.20;4.40;;;;;;;22.57;72.97;99698.03;4959057;28;20038;-74
2021/08/28 03:57:46;;;;;;;4.57;4.18;;;;;;;22.49;73.26;99686.97;4959057;28;20093;-75
2021/08/28 04:00:12;;;;;;;4.88;4.32;;;;;;;22.53;73.33;99691.69;4958402;28;20031;-73
2021/08/28 04:02:38;;;;;;;4.40;2.90;;;;;;;22.49;73.11;99686.97;4958370;28;20022;-74
2021/08/28 04:05:03;;;;;;;2.55;2.35;;;;;;;22.33;73.79;99689.13;4958491;28;20026;-75
2021/08/28 04:07:29;;;;;;;5.65;2.60;;;;;;;22.26;74.38;99690.16;4958570;28;20039;-75
2021/08/28 04:09:55;;;;;;;4.38;2.92;;;;;;;22.31;75.66;99686.75;4958379;28;20470;-79
2021/08/28 04:12:20;;;;;;;4.30;2.65;;;;;;;21.88;78.16;99696.59;4958508;28;20049;-80
2021/08/28 04:14:46;;;;;;;3.53;2.70;;;;;;;21.68;79.11;99681.84;4958752;28;20431;-80
2021/08/28 04:17:11;;;;;;;2.78;2.58;;;;;;;21.79;79.34;99696.47;4958427;28;20039;-79
2021/08/28 04:19:37;;;;;;;3.15;2.83;;;;;;;21.67;80.19;99697.25;4957823;28;20057;-77
2021/08/28 04:22:03;;;;;;;4.78;2.70;;;;;;;21.47;80.84;99688.97;4958327;28;20029;-80
2021/08/28 04:24:29;;;;;;;2.47;2.33;;;;;;;21.55;81.48;99689.53;4958636;28;20474;-76
2021/08/28 04:26:54;;;;;;;4.30;2.88;;;;;;;21.65;81.17;99691.25;4958124;28;20051;-79
2021/08/28 04:29:20;;;;;;;2.85;2.65;;;;;;;21.72;81.14;99696.69;4958551;28;20121;-78
2021/08/28 04:31:46;;;;;;;2.72;2.47;;;;;;;21.81;81.16;99688.31;4958207;28;20037;-81
2021/08/28 04:34:11;;;;;;;3.00;2.70;;;;;;;21.93;80.70;99684.69;4957966;28;20053;-82
2021/08/28 04:36:37;;;;;;;3.35;2.60;;;;;;;21.93;80.44;99676.19;4957889;28;20130;-78
2021/08/28 04:39:02;;;;;;;2.72;2.53;;;;;;;22.01;80.53;99673.16;4957901;28;20039;-79
2021/08/28 04:41:28;;;;;;;2.53;2.33;;;;;;;22.07;79.51;99663.63;4957755;28;20118;-83
2021/08/28 04:43:53;;;;;;;2.35;2.15;;;;;;;22.12;78.87;99656.63;4958274;28;20035;-78
2021/08/28 04:46:19;;;;;;;2.70;1.85;;;;;;;22.13;77.62;99652.53;4957698;28;20038;-75
2021/08/28 04:48:46;;;;;;;2.70;2.20;;;;;;;22.19;77.26;99647.88;4957632;28;20088;-74
2021/08/28 04:51:12;;;;;;;4.57;2.38;;;;;;;22.21;77.00;99648.22;4957623;28;20034;-76
2021/08/28 04:53:40;;;;;;;2.45;2.25;;;;;;;22.33;76.54;99649.47;4958275;28;20038;-76
2021/08/28 04:56:06;;;;;;;2.92;2.42;;;;;;;22.69;75.66;99637.66;4957632;28;20099;-76
2021/08/28 04:58:31;;;;;;;1.95;1.75;;;;;;;22.70;75.09;99633.59;4957644;28;20047;-76
2021/08/28 05:00:57;;;;;;;3.42;2.25;;;;;;;22.76;75.02;99634.59;4957609;28;20026;-76
2021/08/28 05:03:25;;;;;;;3.25;2.67;;;;;;;22.72;75.18;99625.41;4957847;28;20126;-77
2021/08/28 05:05:54;;;;;;;4.38;2.42;;;;;;;22.76;75.34;99626.09;4957513;28;20027;-75
2021/08/28 05:08:20;;;;;;;3.38;2.03;;;;;;;22.95;74.21;99633.50;4975023;28;20035;-75
2021/08/28 05:10:46;;;;;;;7.88;2.42;;;;;;;22.78;73.78;99634.13;4957436;28;20030;-78
2021/08/28 05:13:12;;;;;;;2.70;2.50;;;;;;;22.60;74.42;99638.41;4957440;28;20038;-78
2021/08/28 05:15:37;;;;;;;7.13;2.55;;;;;;;22.47;74.89;99648.97;4957448;28;20034;-78
2021/08/28 05:18:04;;;;;;;3.63;2.72;;;;;;;22.16;77.59;99652.44;4957781;28;20047;-81
2021/08/28 05:20:30;;;;;;;4.30;2.67;;;;;;;22.12;78.20;99656.63;4974809;28;20122;-83
2021/08/28 05:22:55;;;;;;;6.47;3.22;;;;;;;22.01;78.83;99661.81;4958042;28;20081;-80
2021/08/28 05:25:21;;;;;;;6.15;3.30;;;;;;;21.86;79.11;99662.28;4975257;28;20482;-82
2021/08/28 05:27:46;;;;;;;2.83;2.63;;;;;;;21.83;80.06;99657.50;4957915;28;20093;-79
2021/08/28 05:30:12;;;;;;;3.25;2.60;;;;;;;21.83;79.50;99665.19;4961288;28;20031;-81
2021/08/28 05:32:38;;;;;;;3.17;2.33;;;;;;;21.82;80.37;99675.75;4961315;28;20053;-79
2021/08/28 05:35:04;;;;;;;6.35;3.40;;;;;;;21.87;80.00;99683.69;4961104;28;20034;-80
2021/08/28 05:37:30;;;;;;;6.35;3.00;;;;;;;21.69;80.40;99672.13;4961285;28;20042;-78
2021/08/28 05:39:55;;;;;;;6.07;3.20;;;;;;;21.79;80.23;99678.69;4961355;28;20468;-77
2021/08/28 05:42:21;;;;;;;3.35;2.85;;;;;;;21.87;80.95;99686.50;4961646;28;20510;-78
2021/08/28 05:44:46;;;;;;;5.22;3.30;;;;;;;21.98;80.39;99686.97;4960938;28;20124;-79
2021/08/28 05:47:12;;;;;;;5.55;2.90;;;;;;;22.09;79.98;99700.00;4961347;28;20038;-77
2021/08/28 05:49:40;;;;;;;3.88;2.95;;;;;;;22.19;79.59;99696.06;4961133;28;20451;-76
2021/08/28 05:52:08;;;;;;;5.22;2.75;;;;;;;22.32;79.73;99696.03;4961279;28;20073;-77
2021/08/28 05:54:37;;;;;;;8.48;5.63;;;;;;;22.45;78.99;99697.63;4960975;28;20470;-76
2021/08/28 05:57:05;;;;;;;6.18;4.45;;;;;;;22.53;77.96;99695.34;4960866;28;20038;-78
2021/08/28 05:59:31;;;;;;;6.30;3.88;;;;;;;22.63;77.45;99704.72;4960859;28;20035;-78
2021/08/28 06:01:56;;;;;;;4.10;2.80;;;;;;;22.70;77.13;99696.00;4961012;28;20057;-79
2021/08/28 06:04:22;;;;;;;7.43;4.43;;;;;;;22.72;76.91;99682.91;4960475;28;20442;-77
2021/08/28 06:06:47;;;;;;;10.80;8.77;;;;;;;22.92;76.14;99690.38;4960492;28;20042;-76
2021/08/28 06:09:13;;;;;;;5.82;4.35;;;;;;;22.91;76.02;99694.47;4960462;28;20030;-77
2021/08/28 06:11:41;;;;;;;5.50;3.38;;;;;;;23.03;76.07;99692.84;4960444;28;20041;-78
2021/08/28 06:14:06;;;;;;;4.97;2.78;;;;;;;23.23;74.84;99694.13;4977570;28;20479;-79
2021/08/28 06:16:35;;;;;;;11.02;3.80;;;;;;;23.50;73.52;99693.50;4960317;28;20126;-76
2021/08/28 06:19:00;;;;;;;6.25;2.60;;;;;;;23.75;71.95;99683.25;4960120;28;20058;-77
2021/08/28 06:21:31;;;;;;;7.18;3.38;;;;;;;23.73;70.41;99688.63;4960199;28;20030;-77
2021/08/28 06:23:57;;;;;;;5.38;2.75;;;;;;;23.91;69.65;99691.53;4977588;28;20031;-77
2021/08/28 06:26:23;;;;;;;5.82;2.85;;;;;;;23.88;68.31;99686.81;4960679;28;20069;-79
2021/08/28 06:28:48;;;;;;;5.13;2.92;;;;;;;23.99;67.52;99686.38;4960232;28;20058;-79
2021/08/28 06:31:14;;;;;;;4.35;2.75;;;;;;;24.22;67.57;99687.88;4960152;28;20034;-78
2021/08/28 06:33:42;;;;;;;7.82;3.28;;;;;;;24.55;66.81;99691.81;4960794;28;20035;-77
2021/08/28 06:36:10;;;;;;;8.40;2.78;;;;;;;24.62;65.14;99685.03;4960007;28;20031;-77
2021/08/28 06:38:35;;;;;;;5.47;2.67;;;;;;;24.53;65.81;99682.94;4959716;28;20034;-79
2021/08/28 06:41:04;;;;;;;5.65;3.00;;;;;;;24.75;67.36;99690.56;4959607;28;20027;-77
2021/08/28 06:43:33;;;;;;;5.13;3.03;;;;;;;25.02;66.53;99690.56;4960171;28;20077;-80
2021/08/28 06:45:58;;;;;;;5.15;2.80;;;;;;;24.97;66.93;99685.53;4959828;28;20022;-78
2021/08/28 06:48:24;;;;;;;5.53;2.75;;;;;;;24.92;66.34;99688.19;4959877;28;20057;-78
2021/08/28 06:50:52;;;;;;;5.88;3.10;;;;;;;25.87;63.38;99679.44;4959790;28;20038;-80
2021/08/28 06:53:20;;;;;;;4.88;2.38;;;;;;;25.59;63.25;99653.06;4960016;28;20123;-79
2021/08/28 06:55:48;;;;;;;5.15;2.72;;;;;;;26.93;59.18;99677.44;4959613;28;20035;-78
2021/08/28 06:58:13;;;;;;;4.10;2.85;;;;;;;27.73;57.09;99667.03;4959894;28;20062;-78
2021/08/28 07:00:39;;;;;;;5.45;2.47;;;;;;;28.28;54.07;99680.63;4959449;28;20529;-77
2021/08/28 07:03:06;;;;;;;6.05;2.92;;;;;;;28.89;52.00;99672.16;4959755;28;20086;-79
2021/08/28 07:05:32;;;;;;;4.82;2.55;;;;;;;28.98;51.67;99674.91;4959947;28;20470;-78
2021/08/28 07:07:57;;;;;;;4.45;2.50;;;;;;;29.08;50.89;99664.84;4959416;28;20084;-76
2021/08/28 07:10:23;;;;;;;3.15;2.00;;;;;;;29.42;49.83;99670.94;4959414;28;20030;-82
2021/08/28 07:12:48;;;;;;;5.55;2.50;;;;;;;29.57;49.67;99663.06;4959227;28;20035;-79
2021/08/28 07:15:16;;;;;;;5.28;2.22;;;;;;;29.77;49.04;99655.66;4959779;28;20031;-82
2021/08/28 07:17:42;;;;;;;4.15;1.90;;;;;;;29.69;48.77;99661.84;4959277;28;20038;-79
2021/08/28 07:20:08;;;;;;;4.03;1.92;;;;;;;29.15;50.82;99652.19;4959606;28;20394;-79
2021/08/28 07:22:34;;;;;;;8.93;2.60;;;;;;;28.63;52.08;99641.38;4959135;28;20489;-78
2021/08/28 07:24:59;;;;;;;6.75;3.17;;;;;;;28.64;51.69;99642.16;4959084;28;20019;-82
2021/08/28 07:27:26;;;;;;;11.88;3.20;;;;;;;28.30;53.45;99640.91;4958985;28;20054;-82
2021/08/28 07:29:54;;;;;;;3.97;2.67;;;;;;;28.53;52.50;99636.28;4958954;28;20030;-79
2021/08/28 07:32:22;;;;;;;4.32;2.85;;;;;;;28.45;52.29;99638.81;4959184;28;20031;-78
2021/08/28 07:34:49;;;;;;;5.25;3.13;;;;;;;28.78;51.91;99649.13;4976265;28;20026;-79
2021/08/28 07:37:15;;;;;;;5.35;2.80;;;;;;;29.13;50.90;99649.78;4958905;28;20035;-78
2021/08/28 07:39:40;;;;;;;6.95;3.53;;;;;;;29.12;50.82;99642.50;4958767;28;20030;-80
2021/08/28 07:42:06;;;;;;;4.93;3.05;;;;;;;29.72;48.64;99660.84;4958986;28;20027;-82
2021/08/28 07:44:32;;;;;;;4.13;2.60;;;;;;;30.16;47.80;99661.72;4958874;28;20026;-78
2021/08/28 07:46:57;;;;;;;4.63;2.47;;;;;;;30.80;46.13;99666.03;4958897;28;20466;-73
2021/08/28 07:49:23;;;;;;;3.90;2.50;;;;;;;31.69;44.02;99661.81;4959436;28;20364;-74
2021/08/28 07:51:49;;;;;;;5.78;2.72;;;;;;;31.58;43.69;99659.72;4957915;28;20375;-74
2021/08/28 07:54:14;;;;;;;3.25;2.30;;;;;;;31.59;43.39;99660.50;4958218;28;20541;-77
2021/08/28 07:56:40;;;;;;;3.47;2.38;;;;;;;31.33;43.97;99666.50;4958347;28;20038;-78
2021/08/28 07:59:09;;;;;;;3.22;1.83;;;;;;;31.14;41.20;99660.41;4958723;28;20489;-74
2021/08/28 08:01:37;;;;;;;2.72;2.30;;;;;;;31.22;39.69;99656.50;4958500;28;20035;-77
2021/08/28 08:04:03;;;;;;;4.20;2.65;;;;;;;31.27;40.32;99666.47;4958250;28;20030;-73
2021/08/28 08:06:28;;;;;;;5.43;2.30;;;;;;;30.13;42.92;99654.91;4958280;28;20037;-74
2021/08/28 08:08:54;;;;;;;3.38;2.67;;;;;;;29.25;46.19;99655.66;4958298;28;20035;-76
2021/08/28 08:11:20;;;;;;;5.70;2.47;;;;;;;28.93;47.53;99664.94;4958263;28;20122;-74
2021/08/28 08:13:46;;;;;;;3.03;2.72;;;;;;;28.88;48.98;99668.50;4958785;28;20089;-74
2021/08/28 08:16:12;;;;;;;7.63;2.63;;;;;;;29.01;48.35;99664.50;4958334;28;20378;-75
2021/08/28 08:18:38;;;;;;;4.63;2.63;;;;;;;28.72;46.81;99671.94;4957874;28;20085;-75
2021/08/28 08:21:04;;;;;;;2.22;2.03;;;;;;;29.01;44.90;99667.38;4942543;28;20066;-75
2021/08/28 08:23:29;;;;;;;3.92;2.35;;;;;;;30.10;42.54;99655.16;4958021;28;20058;-75
2021/08/28 08:25:57;;;;;;;2.50;1.95;;;;;;;30.32;40.36;99657.41;4975324;28;20059;-75
2021/08/28 08:28:25;;;;;;;4.68;1.95;;;;;;;31.10;36.92;99671.34;4957906;28;20482;-75
2021/08/28 08:30:50;;;;;;;3.30;2.40;;;;;;;31.06;36.83;99665.88;4975116;28;20073;-73
2021/08/28 08:33:18;;;;;;;5.95;2.30;;;;;;;32.26;36.26;99661.28;4958419;28;20459;-74
2021/08/28 08:35:44;;;;;;;4.13;2.40;;;;;;;32.88;35.60;99658.25;4975209;28;20089;-74
2021/08/28 08:38:09;;;;;;;2.30;2.10;;;;;;;33.37;33.89;99665.06;4957786;28;20043;-74
2021/08/28 08:40:35;;;;;;;2.17;1.60;;;;;;;34.16;30.68;99670.28;4957771;28;20138;-74
2021/08/28 08:43:03;;;;;;;3.03;2.30;;;;;;;34.26;30.28;99668.59;4957733;28;20035;-73
2021/08/28 08:45:30;;;;;;;2.60;2.17;;;;;;;33.99;29.87;99661.00;4957923;28;20027;-74
2021/08/28 08:47:57;;;;;;;3.45;2.50;;;;;;;33.19;31.91;99670.69;4957711;28;20043;-74
2021/08/28 08:50:28;;;;;;;2.03;1.83;;;;;;;33.59;32.43;99669.16;4957697;28;20035;-74
2021/08/28 08:53:00;;;;;;;2.73;2.07;;;;;;;33.93;32.63;99666.81;4974962;28;20038;-74
2021/08/28 08:55:28;;;;;;;3.78;2.28;;;;;;;34.19;30.36;99660.50;4974708;28;20041;-74
2021/08/28 08:57:57;;;;;;;2.80;1.92;;;;;;;34.35;30.23;99662.44;4957538;28;20031;-74
2021/08/28 09:00:22;;;;;;;3.78;2.58;;;;;;;33.42;32.26;99672.16;4974850;28;20031;-74
2021/08/28 09:02:48;;;;;;;2.33;2.13;;;;;;;33.58;33.01;99667.59;4958040;28;20122;-74
2021/08/28 09:05:13;;;;;;;2.42;1.92;;;;;;;32.84;34.71;99658.50;4957712;28;20026;-74
2021/08/28 09:07:39;;;;;;;4.13;2.28;;;;;;;33.31;34.15;99655.69;4957595;28;20371;-74
2021/08/28 09:10:05;;;;;;;4.22;2.47;;;;;;;32.90;35.20;99651.97;4957345;28;20463;-74
2021/08/28 09:12:39;;;;;;;3.83;2.20;;;;;;;33.58;33.80;99656.06;4957539;28;20118;-73
2021/08/28 09:15:08;;;;;;;2.88;2.08;;;;;;;33.21;33.46;99636.34;4957414;28;20414;-74
2021/08/28 09:17:34;;;;;;;2.55;2.13;;;;;;;32.62;34.74;99647.09;4974550;28;20038;-73
2021/08/28 09:20:02;;;;;;;3.53;2.20;;;;;;;32.17;34.93;99632.78;4956510;28;20055;-73
2021/08/28 09:22:32;;;;;;;2.20;1.85;;;;;;;33.29;32.96;99652.56;4957080;28;20429;-74
2021/08/28 09:25:03;;;;;;;2.85;2.40;;;;;;;33.09;32.99;99655.81;4956978;28;20118;-74
2021/08/28 09:27:39;;;;;;;2.38;2.17;;;;;;;32.26;33.95;99658.41;4956697;28;20027;-74
2021/08/28 09:30:24;;;;;;;2.67;1.98;;;;;;;31.69;35.07;99641.69;4974469;28;20034;-73
2021/08/28 09:33:08;;;;;;;2.97;2.10;;;;;;;30.69;37.29;99661.03;4956682;28;20030;-74
2021/08/28 09:35:54;;;;;;;2.67;1.95;;;;;;;30.62;37.97;99663.53;4956887;28;20034;-75
2021/08/28 09:38:22;;;;;;;2.63;1.90;;;;;;;31.38;36.43;99680.88;4957019;28;20372;-76
2021/08/28 09:40:54;;;;;;;4.03;2.30;;;;;;;29.91;39.37;99671.94;4957023;28;20027;-74
2021/08/28 09:43:21;;;;;;;2.40;2.20;;;;;;;30.46;38.47;99676.50;4956570;28;20038;-73
2021/08/28 09:45:50;;;;;;;3.88;2.25;;;;;;;30.99;37.53;99678.63;4956623;28;20031;-74
2021/08/28 09:48:17;;;;;;;4.15;2.20;;;;;;;30.96;38.01;99668.19;4957065;28;20409;-73
2021/08/28 09:50:48;;;;;;;3.15;2.33;;;;;;;31.59;36.88;99666.25;4973780;28;20027;-73
2021/08/28 09:53:21;;;;;;;3.00;2.28;;;;;;;30.49;37.93;99672.63;4956465;28;20023;-74
2021/08/28 09:55:57;;;;;;;3.15;2.25;;;;;;;30.04;39.17;99675.16;4956863;28;20122;-73
2021/08/28 09:58:28;;;;;;;2.30;2.10;;;;;;;29.72;39.75;99683.78;4957149;28;20086;-74
2021/08/28 10:00:58;;;;;;;3.00;2.47;;;;;;;29.35;41.12;99682.84;4956416;28;20086;-73
2021/08/28 10:03:28;;;;;;;3.58;2.30;;;;;;;30.39;39.61;99672.03;4957288;28;20030;-73
2021/08/28 10:05:55;;;;;;;2.30;2.10;;;;;;;31.68;37.15;99663.91;4956694;28;20089;-73
2021/08/28 10:08:21;;;;;;;4.25;2.20;;;;;;;31.16;38.26;99670.06;4956927;28;20047;-75
2021/08/28 10:10:49;;;;;;;4.60;2.47;;;;;;;30.72;38.76;99674.34;4940654;28;20133;-74
2021/08/28 10:13:17;;;;;;;2.97;2.75;;;;;;;30.11;39.83;99674.69;4957025;28;20027;-73
2021/08/28 10:15:43;;;;;;;2.78;2.28;;;;;;;29.78;40.98;99674.44;4958684;28;20034;-74
2021/08/28 10:18:11;;;;;;;2.83;2.20;;;;;;;29.61;41.08;99677.13;4959776;28;20050;-74
2021/08/28 10:20:39;;;;;;;2.47;1.95;;;;;;;29.42;41.64;99668.09;4977122;28;20053;-75
2021/08/28 10:23:07;;;;;;;3.13;2.72;;;;;;;29.93;40.76;99677.94;4959861;28;20054;-73
2021/08/28 10:25:36;;;;;;;2.47;2.28;;;;;;;30.35;40.48;99670.72;4960131;28;20394;-73
2021/08/28 10:28:03;;;;;;;2.90;2.22;;;;;;;30.37;38.68;99676.75;4959837;28;20035;-73
2021/08/28 10:30:32;;;;;;;5.13;2.45;;;;;;;30.02;39.72;99667.06;4960084;28;20038;-73
2021/08/28 10:32:57;;;;;;;3.38;2.53;;;;;;;30.59;39.36;99671.13;4959695;28;20054;-73
2021/08/28 10:35:24;;;;;;;2.95;2.20;;;;;;;29.93;40.37;99675.06;4959885;28;20427;-74
2021/08/28 10:37:50;;;;;;;3.70;2.08;;;;;;;30.12;40.38;99670.56;4959759;28;20094;-74
2021/08/28 10:40:18;;;;;;;7.57;2.85;;;;;;;30.27;40.38;99661.81;4959558;28;20047;-73
2021/08/28 10:42:45;;;;;;;5.63;2.33;;;;;;;29.19;42.32;99667.84;4959609;28;20030;-73
2021/08/28 10:45:12;;;;;;;3.70;2.38;;;;;;;29.52;41.68;99658.03;4959505;28;20035;-73
2021/08/28 10:47:38;;;;;;;2.22;1.85;;;;;;;29.52;41.93;99669.50;4959968;28;20125;-73
2021/08/28 10:50:09;;;;;;;4.82;2.15;;;;;;;30.23;40.27;99664.91;4959330;28;20102;-74
2021/08/28 10:52:40;;;;;;;2.85;2.08;;;;;;;29.83;39.81;99665.06;4959360;28;20061;-74
2021/08/28 10:55:11;;;;;;;6.30;2.20;;;;;;;30.01;38.74;99665.50;4959663;28;20034;-74
2021/08/28 10:57:38;;;;;;;2.30;2.10;;;;;;;31.29;36.13;99661.78;4959735;28;20359;-74
2021/08/28 11:00:24;;;;;;;3.35;2.30;;;;;;;31.03;35.07;99667.66;4959708;28;20030;-74
2021/08/28 11:02:58;;;;;;;4.97;1.80;;;;;;;30.04;35.94;99652.19;4959068;28;20042;-74
2021/08/28 11:05:32;;;;;;;1.73;1.63;;;;;;;29.80;37.28;99666.09;4959523;28;20037;-74
2021/08/28 11:08:16;;;;;;;2.30;1.85;;;;;;;29.82;37.68;99663.50;4959411;28;20038;-73
2021/08/28 11:11:18;;;;;;;2.17;1.83;;;;;;;30.49;36.64;99652.53;4959229;28;20035;-73
2021/08/28 11:13:58;;;;;;;3.45;2.20;;;;;;;30.94;35.45;99652.75;4959111;28;20031;-73
2021/08/28 11:16:45;;;;;;;3.05;2.15;;;;;;;30.35;34.81;99656.34;4959201;28;20456;-73
2021/08/28 11:19:23;;;;;;;3.55;1.70;;;;;;;29.74;36.00;99623.84;4958557;28;20054;-73
2021/08/28 11:21:54;;;;;;;2.85;1.90;;;;;;;29.90;37.10;99653.16;4959397;28;20042;-73
2021/08/28 11:24:28;;;;;;;2.38;1.80;;;;;;;30.71;35.53;99655.53;4958888;28;20128;-73
2021/08/28 11:27:01;;;;;;;4.00;2.28;;;;;;;30.73;35.85;99655.78;4954847;28;20498;-73
2021/08/28 11:29:29;;;;;;;2.95;1.90;;;;;;;29.96;37.49;99596.63;4959303;28;20487;-73
2021/08/28 11:32:12;;;;;;;4.18;1.77;;;;;;;30.62;36.72;99660.69;4959252;28;20548;-75
2021/08/28 11:34:43;;;;;;;;;;;;;;;30.66;37.00;99662.00;4977081;28;20085;-75
2021/08/28 11:37:34;;;;;;;4.07;2.05;;;;;;;30.48;37.23;99659.56;4959143;28;19917;-74
2021/08/28 11:40:24;;;;;;;2.45;1.80;;;;;;;29.81;38.23;99650.47;4958605;28;20077;-74